createdAt,value
2023-05-21T00:00:00.499Z,11.80
2023-05-21T00:01:00.492Z,12.60
2023-05-21T00:02:00.453Z,12.90
2023-05-21T00:03:00.530Z,12.50
2023-05-21T00:04:00.571Z,12.60
2023-05-21T00:05:00.473Z,13.20
2023-05-21T00:06:00.565Z,13.30
2023-05-21T00:07:00.453Z,12.00
2023-05-21T00:08:00.383Z,12.70
2023-05-21T00:09:00.400Z,12.60
2023-05-21T00:10:00.391Z,12.50
2023-05-21T00:11:00.378Z,12.50
2023-05-21T00:12:00.351Z,13.30
2023-05-21T00:13:00.346Z,12.40
2023-05-21T00:14:00.345Z,12.60
2023-05-21T00:15:00.363Z,12.50
2023-05-21T00:16:00.324Z,12.10
2023-05-21T00:17:00.316Z,12.30
2023-05-21T00:18:00.314Z,13.10
2023-05-21T00:19:00.422Z,13.10
2023-05-21T00:20:00.397Z,12.60
2023-05-21T00:21:00.264Z,13.00
2023-05-21T00:22:00.241Z,13.10
2023-05-21T00:23:00.235Z,13.10
2023-05-21T00:24:00.284Z,12.50
2023-05-21T00:25:00.221Z,13.60
2023-05-21T00:26:00.209Z,14.10
2023-05-21T00:27:00.208Z,12.80
2023-05-21T00:28:00.200Z,13.10
2023-05-21T00:29:00.202Z,13.40
2023-05-21T00:30:00.211Z,14.00
2023-05-21T00:31:00.154Z,13.00
2023-05-21T00:32:00.263Z,13.20
2023-05-21T00:33:00.233Z,13.20
2023-05-21T00:34:00.149Z,12.90
2023-05-21T00:35:00.169Z,13.00
2023-05-21T00:36:00.111Z,13.60
2023-05-21T00:37:00.118Z,13.20
2023-05-21T00:38:00.137Z,13.30
2023-05-21T00:39:00.130Z,13.10
2023-05-21T00:40:00.068Z,14.30
2023-05-21T00:41:00.063Z,13.90
2023-05-21T00:42:00.029Z,13.40
2023-05-21T00:43:00.151Z,14.40
2023-05-21T00:44:00.059Z,13.80
2023-05-21T00:45:00.027Z,13.70
2023-05-21T00:46:00.006Z,13.50
2023-05-21T00:47:00.004Z,13.50
2023-05-21T00:48:00.034Z,13.90
2023-05-21T00:48:59.967Z,14.10
2023-05-21T00:49:59.945Z,14.20
2023-05-21T00:50:59.983Z,13.70
2023-05-21T00:51:59.931Z,14.30
2023-05-21T00:52:59.976Z,13.80
2023-05-21T00:53:59.922Z,14.60
2023-05-21T00:54:59.915Z,14.50
2023-05-21T00:55:59.881Z,14.60
2023-05-21T00:56:59.910Z,14.40
2023-05-21T00:57:59.867Z,14.50
2023-05-21T00:58:59.930Z,14.40
2023-05-21T00:59:59.894Z,14.50
2023-05-21T01:00:59.878Z,14.20
2023-05-21T01:01:59.937Z,14.90
2023-05-21T01:02:59.928Z,14.80
2023-05-21T01:03:59.896Z,15.10
2023-05-21T01:04:59.819Z,15.10
2023-05-21T01:05:59.862Z,15.70
2023-05-21T01:06:59.775Z,15.80
2023-05-21T01:07:59.759Z,15.90
2023-05-21T01:08:59.766Z,15.30
2023-05-21T01:09:59.730Z,16.40
2023-05-21T01:10:59.765Z,16.10
2023-05-21T01:11:59.708Z,16.20
2023-05-21T01:12:59.720Z,15.90
2023-05-21T01:13:59.708Z,15.50
2023-05-21T01:14:59.688Z,16.10
2023-05-21T01:15:59.751Z,16.10
2023-05-21T01:16:59.723Z,15.30
2023-05-21T01:17:59.696Z,16.80
2023-05-21T01:18:59.933Z,16.70
2023-05-21T01:19:59.658Z,16.90
2023-05-21T01:20:59.653Z,17.00
2023-05-21T01:21:59.613Z,16.60
2023-05-21T01:22:59.603Z,15.20
2023-05-21T01:23:59.586Z,16.10
2023-05-21T01:24:59.622Z,16.30
2023-05-21T01:25:59.558Z,17.70
2023-05-21T01:26:59.560Z,18.40
2023-05-21T01:27:59.537Z,17.80
2023-05-21T01:28:59.552Z,17.60
2023-05-21T01:29:59.566Z,17.80
2023-05-21T01:30:59.520Z,17.90
2023-05-21T01:31:59.521Z,17.00
2023-05-21T01:32:59.569Z,17.50
2023-05-21T01:33:59.584Z,17.20
2023-05-21T01:34:59.517Z,16.80
2023-05-21T01:35:59.452Z,16.10
2023-05-21T01:36:59.467Z,17.30
2023-05-21T01:37:59.446Z,16.70
2023-05-21T01:38:59.508Z,17.80
2023-05-21T01:39:59.415Z,17.30
2023-05-21T01:40:59.425Z,16.50
2023-05-21T01:41:59.401Z,17.60
2023-05-21T01:42:59.382Z,18.10
2023-05-21T01:43:59.408Z,17.40
2023-05-21T01:44:59.388Z,18.20
2023-05-21T01:45:59.370Z,17.00
2023-05-21T01:46:59.354Z,17.50
2023-05-21T01:47:59.425Z,18.50
2023-05-21T01:48:59.358Z,17.60
2023-05-21T01:49:59.327Z,18.00
2023-05-21T01:50:59.331Z,16.90
2023-05-21T01:51:59.306Z,17.80
2023-05-21T01:52:59.331Z,16.70
2023-05-21T01:53:59.289Z,16.60
2023-05-21T01:54:59.266Z,17.50
2023-05-21T01:55:59.260Z,17.80
2023-05-21T01:56:59.259Z,17.70
2023-05-21T01:58:01.234Z,17.30
2023-05-21T01:58:59.242Z,16.70
2023-05-21T01:59:59.212Z,18.00
2023-05-21T02:00:59.210Z,18.20
2023-05-21T02:01:59.251Z,17.50
2023-05-21T02:02:59.295Z,19.30
2023-05-21T02:03:59.326Z,18.30
2023-05-21T02:04:59.153Z,18.10
2023-05-21T02:05:59.211Z,18.20
2023-05-21T02:06:59.167Z,18.60
2023-05-21T02:07:59.120Z,18.80
2023-05-21T02:08:59.138Z,18.20
2023-05-21T02:09:59.113Z,17.90
2023-05-21T02:10:59.118Z,17.00
2023-05-21T02:11:59.117Z,17.90
2023-05-21T02:12:59.083Z,18.00
2023-05-21T02:13:59.082Z,18.00
2023-05-21T02:14:59.056Z,17.70
2023-05-21T02:15:59.085Z,17.20
2023-05-21T02:16:59.068Z,18.40
2023-05-21T02:17:59.029Z,18.00
2023-05-21T02:18:59.054Z,18.10
2023-05-21T02:19:59.036Z,18.90
2023-05-21T02:20:59.088Z,19.10
2023-05-21T02:21:59.025Z,18.60
2023-05-21T02:22:59.006Z,18.40
2023-05-21T02:23:58.998Z,18.80
2023-05-21T02:24:58.996Z,19.60
2023-05-21T02:25:58.984Z,18.30
2023-05-21T02:26:58.968Z,17.70
2023-05-21T02:27:58.971Z,19.00
2023-05-21T02:28:58.934Z,18.20
2023-05-21T02:29:58.951Z,18.60
2023-05-21T02:30:58.904Z,18.50
2023-05-21T02:31:58.917Z,17.00
2023-05-21T02:32:59.045Z,18.30
2023-05-21T02:33:58.924Z,18.10
2023-05-21T02:34:58.892Z,18.90
2023-05-21T02:35:58.846Z,19.30
2023-05-21T02:36:58.842Z,18.60
2023-05-21T02:37:58.814Z,19.00
2023-05-21T02:38:58.830Z,19.50
2023-05-21T02:39:58.826Z,18.90
2023-05-21T02:40:58.790Z,18.90
2023-05-21T02:41:58.740Z,18.30
2023-05-21T02:42:58.729Z,19.20
2023-05-21T02:43:58.730Z,19.00
2023-05-21T02:44:58.727Z,20.90
2023-05-21T02:45:58.779Z,20.30
2023-05-21T02:46:58.704Z,18.60
2023-05-21T02:47:58.728Z,18.20
2023-05-21T02:48:58.681Z,21.50
2023-05-21T02:49:58.647Z,20.20
2023-05-21T02:50:58.636Z,21.90
2023-05-21T02:51:58.632Z,22.20
2023-05-21T02:52:58.637Z,22.50
2023-05-21T02:53:58.639Z,22.50
2023-05-21T02:54:58.631Z,22.90
2023-05-21T02:55:58.575Z,21.00
2023-05-21T02:56:58.574Z,19.90
2023-05-21T02:57:58.583Z,22.20
2023-05-21T02:58:58.593Z,23.00
2023-05-21T02:59:58.540Z,20.80
2023-05-21T03:00:58.624Z,20.10
2023-05-21T03:01:58.510Z,23.00
2023-05-21T03:02:58.569Z,22.60
2023-05-21T03:03:58.522Z,23.30
2023-05-21T03:04:58.533Z,22.00
2023-05-21T03:05:58.489Z,22.50
2023-05-21T03:06:58.467Z,25.30
2023-05-21T03:07:58.487Z,25.50
2023-05-21T03:08:58.487Z,24.50
2023-05-21T03:09:58.431Z,25.50
2023-05-21T03:10:58.423Z,24.90
2023-05-21T03:11:58.453Z,25.70
2023-05-21T03:12:58.454Z,26.00
2023-05-21T03:13:58.392Z,23.50
2023-05-21T03:14:58.409Z,21.40
2023-05-21T03:15:58.358Z,21.60
2023-05-21T03:16:58.460Z,25.60
2023-05-21T03:17:58.419Z,25.20
2023-05-21T03:18:58.380Z,23.40
2023-05-21T03:19:58.359Z,22.80
2023-05-21T03:20:58.355Z,21.70
2023-05-21T03:21:58.304Z,24.90
2023-05-21T03:22:58.297Z,21.60
2023-05-21T03:23:58.294Z,25.60
2023-05-21T03:24:58.339Z,27.10
2023-05-21T03:25:58.257Z,24.50
2023-05-21T03:26:58.279Z,26.00
2023-05-21T03:27:58.274Z,27.10
2023-05-21T03:28:58.249Z,27.70
2023-05-21T03:29:58.266Z,26.50
2023-05-21T03:30:58.250Z,24.50
2023-05-21T03:31:58.338Z,26.10
2023-05-21T03:32:58.246Z,28.30
2023-05-21T03:33:58.311Z,27.20
2023-05-21T03:34:58.173Z,25.80
2023-05-21T03:35:58.193Z,27.10
2023-05-21T03:36:58.163Z,26.50
2023-05-21T03:37:58.156Z,25.60
2023-05-21T03:38:58.144Z,25.20
2023-05-21T03:39:58.147Z,25.40
2023-05-21T03:40:58.159Z,26.00
2023-05-21T03:41:58.118Z,24.10
2023-05-21T03:42:58.088Z,25.30
2023-05-21T03:43:58.091Z,23.40
2023-05-21T03:44:58.126Z,24.30
2023-05-21T03:45:58.097Z,21.70
2023-05-21T03:46:58.049Z,20.70
2023-05-21T03:47:58.080Z,22.30
2023-05-21T03:48:58.118Z,20.80
2023-05-21T03:49:58.061Z,22.00
2023-05-21T03:50:58.012Z,22.30
2023-05-21T03:51:58.043Z,21.70
2023-05-21T03:52:58.027Z,21.60
2023-05-21T03:53:58.009Z,23.10
2023-05-21T03:54:57.993Z,21.10
2023-05-21T03:55:57.960Z,20.40
2023-05-21T03:56:57.944Z,19.00
2023-05-21T03:57:57.940Z,19.50
2023-05-21T03:58:57.945Z,21.50
2023-05-21T03:59:57.929Z,20.00
2023-05-21T04:00:57.913Z,21.20
2023-05-21T04:01:57.929Z,21.40
2023-05-21T04:02:57.998Z,20.30
2023-05-21T04:03:58.101Z,20.10
2023-05-21T04:04:57.911Z,20.50
2023-05-21T04:05:57.890Z,20.80
2023-05-21T04:06:57.861Z,19.80
2023-05-21T04:07:57.894Z,19.50
2023-05-21T04:08:57.825Z,18.70
2023-05-21T04:09:57.834Z,18.90
2023-05-21T04:10:57.807Z,19.30
2023-05-21T04:11:57.818Z,20.10
2023-05-21T04:12:57.827Z,19.80
2023-05-21T04:13:57.797Z,19.70
2023-05-21T04:14:57.764Z,20.40
2023-05-21T04:15:57.809Z,18.30
2023-05-21T04:16:57.842Z,18.80
2023-05-21T04:17:57.818Z,17.90
2023-05-21T04:18:57.765Z,18.20
2023-05-21T04:19:57.702Z,17.80
2023-05-21T04:20:57.738Z,18.60
2023-05-21T04:21:57.708Z,17.70
2023-05-21T04:22:57.704Z,18.40
2023-05-21T04:23:57.702Z,17.70
2023-05-21T04:24:57.650Z,18.70
2023-05-21T04:25:57.662Z,17.50
2023-05-21T04:26:57.680Z,16.90
2023-05-21T04:27:57.635Z,17.70
2023-05-21T04:28:57.627Z,17.40
2023-05-21T04:29:57.639Z,17.20
2023-05-21T04:30:57.745Z,17.40
2023-05-21T04:31:57.583Z,15.80
2023-05-21T04:32:57.647Z,16.40
2023-05-21T04:33:57.599Z,17.10
2023-05-21T04:34:57.551Z,17.00
2023-05-21T04:35:57.591Z,17.30
2023-05-21T04:36:57.543Z,16.60
2023-05-21T04:37:57.585Z,16.70
2023-05-21T04:38:57.516Z,16.60
2023-05-21T04:39:57.504Z,16.10
2023-05-21T04:40:57.521Z,16.20
2023-05-21T04:41:57.491Z,16.40
2023-05-21T04:42:57.461Z,16.00
2023-05-21T04:43:57.480Z,16.60
2023-05-21T04:44:57.492Z,16.70
2023-05-21T04:45:57.539Z,16.60
2023-05-21T04:46:57.516Z,16.10
2023-05-21T04:47:57.491Z,16.10
2023-05-21T04:48:57.405Z,17.10
2023-05-21T04:49:57.462Z,16.10
2023-05-21T04:50:57.411Z,15.10
2023-05-21T04:51:57.378Z,15.50
2023-05-21T04:52:57.370Z,16.10
2023-05-21T04:53:57.434Z,16.00
2023-05-21T04:54:57.417Z,14.50
2023-05-21T04:55:57.336Z,15.10
2023-05-21T04:56:57.310Z,15.60
2023-05-21T04:57:57.313Z,15.70
2023-05-21T04:58:57.326Z,14.40
2023-05-21T04:59:57.318Z,14.90
2023-05-21T05:00:57.278Z,14.60
2023-05-21T05:01:57.311Z,14.60
2023-05-21T05:02:57.338Z,14.20
2023-05-21T05:03:57.408Z,14.90
2023-05-21T05:04:57.246Z,14.50
2023-05-21T05:05:57.238Z,15.10
2023-05-21T05:06:57.250Z,13.90
2023-05-21T05:07:57.222Z,15.40
2023-05-21T05:08:57.256Z,15.00
2023-05-21T05:09:57.185Z,15.00
2023-05-21T05:10:57.193Z,14.40
2023-05-21T05:11:57.175Z,14.70
2023-05-21T05:12:57.201Z,15.00
2023-05-21T05:13:57.191Z,15.10
2023-05-21T05:14:57.150Z,14.60
2023-05-21T05:15:57.131Z,15.10
2023-05-21T05:16:57.127Z,14.00
2023-05-21T05:17:57.182Z,14.00
2023-05-21T05:18:57.231Z,14.40
2023-05-21T05:19:57.081Z,14.10
2023-05-21T05:20:57.072Z,15.00
2023-05-21T05:21:57.085Z,14.00
2023-05-21T05:22:57.137Z,13.70
2023-05-21T05:23:57.064Z,14.10
2023-05-21T05:24:57.167Z,14.00
2023-05-21T05:25:57.022Z,14.00
2023-05-21T05:26:57.065Z,13.50
2023-05-21T05:27:57.038Z,13.30
2023-05-21T05:28:57.020Z,14.00
2023-05-21T05:29:57.003Z,14.40
2023-05-21T05:30:57.005Z,13.40
2023-05-21T05:31:56.979Z,13.90
2023-05-21T05:32:56.977Z,13.30
2023-05-21T05:33:56.945Z,13.50
2023-05-21T05:34:56.935Z,13.60
2023-05-21T05:35:56.915Z,14.00
2023-05-21T05:36:56.930Z,14.00
2023-05-21T05:37:56.895Z,14.30
2023-05-21T05:38:56.899Z,13.50
2023-05-21T05:39:56.878Z,13.10
2023-05-21T05:40:56.885Z,13.10
2023-05-21T05:41:56.920Z,14.00
2023-05-21T05:42:56.831Z,13.60
2023-05-21T05:43:56.844Z,13.10
2023-05-21T05:44:56.846Z,13.20
2023-05-21T05:45:57.056Z,13.40
2023-05-21T05:46:56.804Z,13.30
2023-05-21T05:47:56.869Z,13.20
2023-05-21T05:48:56.799Z,13.40
2023-05-21T05:49:56.816Z,12.70
2023-05-21T05:50:56.782Z,13.20
2023-05-21T05:51:56.761Z,13.00
2023-05-21T05:52:56.733Z,13.00
2023-05-21T05:53:56.774Z,13.60
2023-05-21T05:54:56.756Z,12.90
2023-05-21T05:55:56.723Z,13.00
2023-05-21T05:56:56.718Z,12.50
2023-05-21T05:57:56.686Z,13.00
2023-05-21T05:58:56.705Z,12.30
2023-05-21T05:59:56.712Z,12.90
2023-05-21T06:00:56.747Z,13.30
2023-05-21T06:01:56.648Z,12.70
2023-05-21T06:02:56.772Z,12.80
2023-05-21T06:03:56.715Z,13.00
2023-05-21T06:04:56.634Z,13.00
2023-05-21T06:05:56.675Z,12.50
2023-05-21T06:06:56.650Z,12.70
2023-05-21T06:07:56.604Z,12.80
2023-05-21T06:08:56.581Z,12.20
2023-05-21T06:09:56.574Z,12.90
2023-05-21T06:10:56.588Z,12.70
2023-05-21T06:11:56.544Z,12.70
2023-05-21T06:12:56.549Z,13.40
2023-05-21T06:13:56.601Z,12.50
2023-05-21T06:14:56.550Z,12.80
2023-05-21T06:15:56.526Z,12.90
2023-05-21T06:16:56.500Z,13.20
2023-05-21T06:17:56.573Z,13.90
2023-05-21T06:18:56.601Z,13.90
2023-05-21T06:19:56.455Z,13.40
2023-05-21T06:20:56.480Z,12.90
2023-05-21T06:21:56.449Z,13.60
2023-05-21T06:22:56.443Z,13.50
2023-05-21T06:23:56.570Z,12.70
2023-05-21T06:24:56.413Z,13.60
2023-05-21T06:25:56.439Z,13.50
2023-05-21T06:26:56.380Z,13.60
2023-05-21T06:27:56.409Z,13.20
2023-05-21T06:28:56.382Z,13.80
2023-05-21T06:29:56.359Z,13.80
2023-05-21T06:30:56.352Z,13.90
2023-05-21T06:31:56.350Z,13.50
2023-05-21T06:32:56.462Z,13.50
2023-05-21T06:33:56.432Z,13.40
2023-05-21T06:34:56.308Z,13.30
2023-05-21T06:35:56.315Z,14.60
2023-05-21T06:36:56.321Z,13.30
2023-05-21T06:37:56.317Z,13.80
2023-05-21T06:38:56.266Z,14.00
2023-05-21T06:39:56.267Z,13.80
2023-05-21T06:40:56.240Z,13.40
2023-05-21T06:41:56.254Z,14.00
2023-05-21T06:42:56.220Z,14.30
2023-05-21T06:43:56.224Z,14.80
2023-05-21T06:44:56.189Z,13.60
2023-05-21T06:45:56.220Z,13.80
2023-05-21T06:46:56.220Z,14.00
2023-05-21T06:47:56.229Z,14.60
2023-05-21T06:48:56.183Z,14.20
2023-05-21T06:49:56.146Z,12.90
2023-05-21T06:50:56.164Z,13.80
2023-05-21T06:51:56.161Z,13.50
2023-05-21T06:52:56.109Z,13.70
2023-05-21T06:53:56.115Z,14.20
2023-05-21T06:54:56.092Z,13.80
2023-05-21T06:55:56.154Z,14.20
2023-05-21T06:56:56.077Z,13.80
2023-05-21T06:57:56.072Z,13.90
2023-05-21T06:58:56.092Z,13.60
2023-05-21T06:59:56.052Z,14.70
2023-05-21T07:00:56.131Z,14.10
2023-05-21T07:01:56.064Z,13.90
2023-05-21T07:02:56.064Z,14.00
2023-05-21T07:03:56.043Z,13.40
2023-05-21T07:04:56.089Z,13.60
2023-05-21T07:05:56.004Z,13.40
2023-05-21T07:06:55.964Z,13.10
2023-05-21T07:07:55.997Z,13.60
2023-05-21T07:08:55.960Z,12.80
2023-05-21T07:09:55.957Z,12.80
2023-05-21T07:10:55.966Z,12.60
2023-05-21T07:11:55.915Z,13.20
2023-05-21T07:12:55.918Z,12.70
2023-05-21T07:13:55.903Z,12.90
2023-05-21T07:14:58.132Z,13.20
2023-05-21T07:15:55.876Z,13.30
2023-05-21T07:16:55.880Z,13.20
2023-05-21T07:17:55.926Z,12.90
2023-05-21T07:18:55.905Z,12.80
2023-05-21T07:19:55.877Z,13.00
2023-05-21T07:20:55.849Z,13.50
2023-05-21T07:21:55.842Z,13.00
2023-05-21T07:22:55.797Z,12.90
2023-05-21T07:23:55.825Z,13.00
2023-05-21T07:24:55.780Z,12.80
2023-05-21T07:25:56.810Z,13.50
2023-05-21T07:26:55.758Z,13.20
2023-05-21T07:27:55.756Z,13.60
2023-05-21T07:28:55.781Z,12.60
2023-05-21T07:29:55.733Z,12.90
2023-05-21T07:30:55.720Z,13.20
2023-05-21T07:31:55.749Z,13.00
2023-05-21T07:32:55.764Z,12.70
2023-05-21T07:33:55.710Z,13.20
2023-05-21T07:34:55.729Z,12.90
2023-05-21T07:35:55.673Z,13.00
2023-05-21T07:36:55.646Z,13.10
2023-05-21T07:37:55.681Z,13.20
2023-05-21T07:38:55.640Z,12.90
2023-05-21T07:39:55.623Z,13.10
2023-05-21T07:40:55.685Z,13.30
2023-05-21T07:41:55.608Z,13.00
2023-05-21T07:42:55.589Z,12.80
2023-05-21T07:43:55.597Z,12.80
2023-05-21T07:44:55.603Z,13.40
2023-05-21T07:45:55.602Z,12.60
2023-05-21T07:46:55.553Z,13.20
2023-05-21T07:47:55.587Z,12.60
2023-05-21T07:48:55.540Z,12.20
2023-05-21T07:49:55.522Z,12.90
2023-05-21T07:50:55.574Z,12.90
2023-05-21T07:51:55.526Z,12.60
2023-05-21T07:52:55.627Z,12.70
2023-05-21T07:53:55.597Z,12.40
2023-05-21T07:54:55.475Z,12.60
2023-05-21T07:55:55.507Z,12.30
2023-05-21T07:56:55.511Z,12.50
2023-05-21T07:57:55.435Z,12.40
2023-05-21T07:58:55.451Z,12.50
2023-05-21T07:59:55.421Z,12.40
2023-05-21T08:00:55.480Z,12.60
2023-05-21T08:01:55.433Z,12.60
2023-05-21T08:02:55.479Z,12.90
2023-05-21T08:03:55.532Z,12.00
2023-05-21T08:04:55.424Z,11.80
2023-05-21T08:05:55.370Z,11.60
2023-05-21T08:06:55.371Z,11.70
2023-05-21T08:07:55.340Z,11.90
2023-05-21T08:08:55.342Z,12.30
2023-05-21T08:09:55.317Z,11.90
2023-05-21T08:10:55.350Z,12.00
2023-05-21T08:11:55.300Z,12.90
2023-05-21T08:12:55.282Z,12.10
2023-05-21T08:13:55.332Z,12.10
2023-05-21T08:14:55.254Z,12.70
2023-05-21T08:15:55.296Z,12.50
2023-05-21T08:16:55.236Z,12.20
2023-05-21T08:17:55.271Z,12.60
2023-05-21T08:18:55.258Z,13.10
2023-05-21T08:19:55.264Z,12.40
2023-05-21T08:20:55.218Z,11.70
2023-05-21T08:21:55.190Z,11.70
2023-05-21T08:22:55.171Z,12.20
2023-05-21T08:23:55.416Z,12.70
2023-05-21T08:24:56.194Z,12.30
2023-05-21T08:25:55.153Z,12.30
2023-05-21T08:26:55.132Z,12.60
2023-05-21T08:27:55.148Z,12.20
2023-05-21T08:28:55.133Z,12.30
2023-05-21T08:29:55.117Z,12.20
2023-05-21T08:30:55.081Z,12.40
2023-05-21T08:31:55.136Z,13.50
2023-05-21T08:32:55.331Z,12.40
2023-05-21T08:33:55.083Z,12.20
2023-05-21T08:34:55.076Z,12.50
2023-05-21T08:35:55.044Z,12.40
2023-05-21T08:36:55.034Z,12.40
2023-05-21T08:37:55.027Z,13.00
2023-05-21T08:38:55.059Z,12.30
2023-05-21T08:39:55.025Z,12.60
2023-05-21T08:40:55.051Z,11.80
2023-05-21T08:41:54.996Z,11.10
2023-05-21T08:42:55.051Z,11.50
2023-05-21T08:43:55.088Z,11.50
2023-05-21T08:44:54.948Z,11.20
2023-05-21T08:45:55.006Z,11.40
2023-05-21T08:46:54.927Z,11.80
2023-05-21T08:47:54.994Z,11.30
2023-05-21T08:48:55.046Z,11.10
2023-05-21T08:49:54.879Z,11.10
2023-05-21T08:50:54.991Z,11.60
2023-05-21T08:51:54.895Z,11.90
2023-05-21T08:52:54.910Z,11.70
2023-05-21T08:53:54.867Z,11.20
2023-05-21T08:54:54.841Z,11.30
2023-05-21T08:55:54.825Z,10.70
2023-05-21T08:56:54.853Z,11.50
2023-05-21T08:57:54.842Z,11.90
2023-05-21T08:58:54.815Z,11.70
2023-05-21T08:59:54.820Z,11.80
2023-05-21T09:00:54.978Z,11.40
2023-05-21T09:01:54.948Z,11.20
2023-05-21T09:02:54.962Z,11.50
2023-05-21T09:04:01.762Z,11.50
2023-05-21T09:04:54.877Z,10.80
2023-05-21T09:05:54.781Z,11.40
2023-05-21T09:06:54.773Z,11.40
2023-05-21T09:07:54.705Z,11.10
2023-05-21T09:08:54.750Z,11.00
2023-05-21T09:09:54.695Z,11.10
2023-05-21T09:10:54.683Z,11.70
2023-05-21T09:11:54.684Z,11.40
2023-05-21T09:12:54.681Z,11.20
2023-05-21T09:13:54.655Z,10.60
2023-05-21T09:14:54.648Z,11.10
2023-05-21T09:15:54.660Z,11.50
2023-05-21T09:16:54.710Z,12.40
2023-05-21T09:17:55.057Z,11.70
2023-05-21T09:18:54.672Z,11.70
2023-05-21T09:19:54.587Z,11.70
2023-05-21T09:20:54.600Z,11.20
2023-05-21T09:21:54.605Z,11.70
2023-05-21T09:22:54.581Z,11.40
2023-05-21T09:23:54.583Z,10.40
2023-05-21T09:24:54.539Z,11.40
2023-05-21T09:25:54.557Z,11.10
2023-05-21T09:26:54.528Z,10.70
2023-05-21T09:27:54.529Z,11.50
2023-05-21T09:28:54.525Z,11.10
2023-05-21T09:29:54.516Z,10.60
2023-05-21T09:30:54.592Z,11.10
2023-05-21T09:31:54.505Z,11.30
2023-05-21T09:32:54.512Z,11.30
2023-05-21T09:33:54.459Z,10.80
2023-05-21T09:34:54.481Z,11.30
2023-05-21T09:35:54.448Z,11.00
2023-05-21T09:36:54.489Z,10.90
2023-05-21T09:37:54.509Z,11.30
2023-05-21T09:38:54.447Z,11.40
2023-05-21T09:39:54.444Z,11.40
2023-05-21T09:40:54.392Z,11.10
2023-05-21T09:41:54.459Z,11.20
2023-05-21T09:42:54.382Z,11.00
2023-05-21T09:43:54.390Z,11.00
2023-05-21T09:44:54.405Z,11.10
2023-05-21T09:45:54.392Z,11.00
2023-05-21T09:46:54.350Z,11.10
2023-05-21T09:47:54.352Z,11.30
2023-05-21T09:48:54.333Z,11.40
2023-05-21T09:49:54.351Z,11.10
2023-05-21T09:50:54.300Z,10.70
2023-05-21T09:51:54.291Z,11.20
2023-05-21T09:52:54.264Z,11.20
2023-05-21T09:53:54.312Z,11.60
2023-05-21T09:54:54.262Z,11.40
2023-05-21T09:55:54.248Z,11.00
2023-05-21T09:56:54.281Z,10.80
2023-05-21T09:57:54.264Z,10.90
2023-05-21T09:58:54.252Z,10.90
2023-05-21T09:59:54.211Z,11.20
2023-05-21T10:00:54.199Z,11.50
2023-05-21T10:01:54.223Z,11.30
2023-05-21T10:02:54.285Z,10.60
2023-05-21T10:03:54.199Z,11.60
2023-05-21T10:04:54.237Z,10.60
2023-05-21T10:05:54.145Z,11.00
2023-05-21T10:06:54.161Z,10.50
2023-05-21T10:07:54.163Z,11.30
2023-05-21T10:08:54.132Z,11.00
2023-05-21T10:09:54.186Z,10.40
2023-05-21T10:10:54.091Z,11.20
2023-05-21T10:11:54.112Z,10.60
2023-05-21T10:12:54.089Z,11.00
2023-05-21T10:13:54.081Z,10.60
2023-05-21T10:14:54.049Z,11.00
2023-05-21T10:15:54.072Z,10.60
2023-05-21T10:16:54.223Z,10.70
2023-05-21T10:17:54.199Z,11.00
2023-05-21T10:18:54.067Z,10.70
2023-05-21T10:19:54.010Z,10.40
2023-05-21T10:20:54.002Z,10.40
2023-05-21T10:21:54.010Z,11.20
2023-05-21T10:22:53.975Z,9.70
2023-05-21T10:23:53.983Z,10.10
2023-05-21T10:24:53.966Z,10.30
2023-05-21T10:25:54.105Z,10.30
2023-05-21T10:26:53.997Z,9.90
2023-05-21T10:27:53.920Z,10.40
2023-05-21T10:28:53.939Z,11.00
2023-05-21T10:29:53.919Z,11.20
2023-05-21T10:30:54.064Z,10.20
2023-05-21T10:31:53.942Z,10.10
2023-05-21T10:32:54.040Z,10.30
2023-05-21T10:33:54.735Z,10.70
2023-05-21T10:34:54.027Z,10.90
2023-05-21T10:35:53.945Z,10.60
2023-05-21T10:36:53.859Z,10.50
2023-05-21T10:37:53.841Z,11.10
2023-05-21T10:38:53.845Z,10.60
2023-05-21T10:39:53.853Z,10.40
2023-05-21T10:40:53.845Z,10.30
2023-05-21T10:41:54.425Z,10.30
2023-05-21T10:42:53.797Z,10.00
2023-05-21T10:43:53.854Z,10.50
2023-05-21T10:44:53.822Z,10.20
2023-05-21T10:45:53.810Z,10.20
2023-05-21T10:46:53.758Z,10.30
2023-05-21T10:47:54.490Z,10.90
2023-05-21T10:48:53.784Z,10.20
2023-05-21T10:49:53.775Z,10.70
2023-05-21T10:50:53.791Z,10.80
2023-05-21T10:51:53.698Z,10.60
2023-05-21T10:52:53.698Z,11.10
2023-05-21T10:53:53.772Z,10.70
2023-05-21T10:54:53.719Z,10.90
2023-05-21T10:55:53.668Z,10.80
2023-05-21T10:56:53.690Z,10.80
2023-05-21T10:57:53.674Z,10.20
2023-05-21T10:58:53.715Z,11.30
2023-05-21T10:59:53.651Z,10.70
2023-05-21T11:00:53.698Z,11.00
2023-05-21T11:01:53.617Z,10.70
2023-05-21T11:02:53.653Z,11.10
2023-05-21T11:03:53.689Z,10.70
2023-05-21T11:04:53.603Z,11.30
2023-05-21T11:05:53.642Z,10.70
2023-05-21T11:06:53.615Z,10.20
2023-05-21T11:07:53.604Z,10.60
2023-05-21T11:08:55.351Z,11.10
2023-05-21T11:09:53.544Z,10.90
2023-05-21T11:10:53.579Z,11.90
2023-05-21T11:11:53.515Z,11.40
2023-05-21T11:12:53.538Z,11.00
2023-05-21T11:13:53.546Z,11.10
2023-05-21T11:14:53.502Z,11.40
2023-05-21T11:15:53.489Z,11.30
2023-05-21T11:16:53.535Z,11.60
2023-05-21T11:17:53.544Z,11.20
2023-05-21T11:18:53.519Z,12.00
2023-05-21T11:19:53.440Z,11.20
2023-05-21T11:20:53.435Z,11.50
2023-05-21T11:21:53.459Z,11.60
2023-05-21T11:22:53.422Z,11.50
2023-05-21T11:23:53.468Z,11.30
2023-05-21T11:24:53.403Z,11.40
2023-05-21T11:25:53.393Z,11.80
2023-05-21T11:26:53.522Z,11.50
2023-05-21T11:27:53.381Z,11.90
2023-05-21T11:28:53.407Z,11.60
2023-05-21T11:29:53.387Z,11.60
2023-05-21T11:30:53.409Z,11.90
2023-05-21T11:31:53.369Z,11.90
2023-05-21T11:32:53.431Z,12.30
2023-05-21T11:33:53.308Z,12.10
2023-05-21T11:34:53.332Z,11.50
2023-05-21T11:35:53.312Z,11.70
2023-05-21T11:36:53.276Z,12.00
2023-05-21T11:37:53.268Z,11.80
2023-05-21T11:38:53.278Z,11.50
2023-05-21T11:39:53.281Z,11.90
2023-05-21T11:40:53.278Z,12.20
2023-05-21T11:41:53.245Z,12.10
2023-05-21T11:42:53.229Z,12.30
2023-05-21T11:43:53.228Z,11.80
2023-05-21T11:44:53.259Z,12.20
2023-05-21T11:45:53.389Z,12.00
2023-05-21T11:46:53.295Z,12.70
2023-05-21T11:47:53.216Z,12.60
2023-05-21T11:48:53.196Z,11.90
2023-05-21T11:49:53.205Z,11.50
2023-05-21T11:50:53.147Z,12.70
2023-05-21T11:51:53.133Z,12.70
2023-05-21T11:52:53.140Z,12.10
2023-05-21T11:53:53.119Z,12.40
2023-05-21T11:54:53.134Z,12.10
2023-05-21T11:55:53.145Z,12.10
2023-05-21T11:56:53.089Z,12.10
2023-05-21T11:57:53.094Z,12.50
2023-05-21T11:58:53.095Z,13.10
2023-05-21T11:59:53.112Z,12.90
2023-05-21T12:00:53.110Z,12.10
2023-05-21T12:01:53.020Z,13.40
2023-05-21T12:02:53.353Z,13.70
2023-05-21T12:03:53.070Z,13.10
2023-05-21T12:04:53.019Z,11.80
2023-05-21T12:05:53.082Z,11.90
2023-05-21T12:06:52.975Z,13.20
2023-05-21T12:07:52.987Z,12.40
2023-05-21T12:08:53.034Z,12.10
2023-05-21T12:09:52.988Z,12.40
2023-05-21T12:10:53.012Z,12.40
2023-05-21T12:11:52.934Z,12.40
2023-05-21T12:12:56.985Z,12.60
2023-05-21T12:13:52.998Z,13.30
2023-05-21T12:14:52.892Z,12.80
2023-05-21T12:15:52.892Z,12.80
2023-05-21T12:16:52.954Z,12.60
2023-05-21T12:17:53.327Z,12.60
2023-05-21T12:18:52.957Z,12.80
2023-05-21T12:19:52.856Z,12.80
2023-05-21T12:20:52.850Z,12.20
2023-05-21T12:21:52.841Z,12.70
2023-05-21T12:22:52.838Z,12.00
2023-05-21T12:23:52.845Z,12.70
2023-05-21T12:24:52.822Z,12.10
2023-05-21T12:25:52.836Z,12.60
2023-05-21T12:26:52.806Z,12.30
2023-05-21T12:27:52.981Z,12.40
2023-05-21T12:28:52.776Z,12.30
2023-05-21T12:29:52.756Z,13.10
2023-05-21T12:30:52.749Z,12.80
2023-05-21T12:31:52.899Z,14.00
2023-05-21T12:32:52.842Z,13.70
2023-05-21T12:33:52.742Z,13.00
2023-05-21T12:34:52.725Z,13.70
2023-05-21T12:35:52.799Z,13.90
2023-05-21T12:36:52.701Z,15.00
2023-05-21T12:37:52.802Z,14.10
2023-05-21T12:38:52.710Z,15.00
2023-05-21T12:39:52.650Z,13.50
2023-05-21T12:40:52.633Z,13.60
2023-05-21T12:41:52.629Z,13.60
2023-05-21T12:42:52.688Z,13.10
2023-05-21T12:43:52.658Z,12.50
2023-05-21T12:44:52.630Z,12.90
2023-05-21T12:45:52.685Z,13.30
2023-05-21T12:47:53.933Z,13.70
2023-05-21T12:48:54.545Z,14.30
2023-05-21T12:49:55.315Z,15.00
2023-05-21T12:50:54.537Z,14.60
2023-05-21T12:51:54.556Z,14.90
2023-05-21T12:52:54.559Z,15.20